createdAt,value
2022-11-21T00:01:00.053Z,100.00
2022-11-21T00:03:27.664Z,100.00
2022-11-21T00:05:55.356Z,100.00
2022-11-21T00:08:23.093Z,100.00
2022-11-21T00:10:51.016Z,100.00
2022-11-21T00:13:20.696Z,100.00
2022-11-21T00:15:49.004Z,100.00
2022-11-21T00:18:17.117Z,100.00
2022-11-21T00:20:45.153Z,100.00
2022-11-21T00:23:13.146Z,100.00
2022-11-21T00:25:41.197Z,100.00
2022-11-21T00:28:08.799Z,100.00
2022-11-21T00:30:38.468Z,100.00
2022-11-21T00:33:06.108Z,100.00
2022-11-21T00:35:36.268Z,100.00
2022-11-21T00:38:04.063Z,100.00
2022-11-21T00:40:31.925Z,100.00
2022-11-21T00:42:59.639Z,100.00
2022-11-21T00:45:27.403Z,100.00
2022-11-21T00:47:56.319Z,100.00
2022-11-21T00:50:24.040Z,100.00
2022-11-21T00:52:55.352Z,100.00
2022-11-21T00:55:23.339Z,100.00
2022-11-21T00:57:50.939Z,100.00
2022-11-21T01:00:19.381Z,100.00
2022-11-21T01:02:46.941Z,100.00
2022-11-21T01:05:16.062Z,100.00
2022-11-21T01:07:43.777Z,100.00
2022-11-21T01:10:11.595Z,100.00
2022-11-21T01:12:39.404Z,100.00
2022-11-21T01:15:07.853Z,100.00
2022-11-21T01:17:35.473Z,100.00
2022-11-21T01:20:03.183Z,100.00
2022-11-21T01:22:33.785Z,100.00
2022-11-21T01:25:01.716Z,100.00
2022-11-21T01:27:29.406Z,100.00
2022-11-21T01:29:57.114Z,100.00
2022-11-21T01:32:24.766Z,100.00
2022-11-21T01:34:52.602Z,100.00
2022-11-21T01:37:20.278Z,100.00
2022-11-21T01:39:49.461Z,100.00
2022-11-21T01:42:17.177Z,100.00
2022-11-21T01:44:50.371Z,100.00
2022-11-21T01:47:18.232Z,100.00
2022-11-21T01:49:46.467Z,100.00
2022-11-21T01:52:18.653Z,100.00
2022-11-21T01:54:49.347Z,100.00
2022-11-21T01:57:20.153Z,100.00
2022-11-21T01:59:50.238Z,100.00
2022-11-21T02:02:19.136Z,100.00
2022-11-21T02:04:49.153Z,100.00
2022-11-21T02:07:18.229Z,100.00
2022-11-21T02:09:48.032Z,100.00
2022-11-21T02:12:18.621Z,100.00
2022-11-21T02:14:49.935Z,100.00
2022-11-21T02:17:20.004Z,100.00
2022-11-21T02:19:51.772Z,100.00
2022-11-21T02:22:24.208Z,100.00
2022-11-21T02:25:00.399Z,100.00
2022-11-21T02:27:28.761Z,100.00
2022-11-21T02:29:56.643Z,100.00
2022-11-21T02:32:28.043Z,100.00
2022-11-21T02:34:56.008Z,100.00
2022-11-21T02:37:24.124Z,100.00
2022-11-21T02:39:52.079Z,100.00
2022-11-21T02:42:24.813Z,100.00
2022-11-21T02:44:55.533Z,100.00
2022-11-21T02:47:24.455Z,100.00
2022-11-21T02:49:59.512Z,100.00
2022-11-21T02:52:27.504Z,100.00
2022-11-21T02:54:55.253Z,100.00
2022-11-21T02:57:25.090Z,100.00
2022-11-21T02:59:52.948Z,100.00
2022-11-21T03:02:21.163Z,100.00
2022-11-21T03:04:49.199Z,100.00
2022-11-21T03:07:17.135Z,100.00
2022-11-21T03:09:45.276Z,100.00
2022-11-21T03:12:13.094Z,100.00
2022-11-21T03:14:42.464Z,100.00
2022-11-21T03:17:10.244Z,100.00
2022-11-21T03:19:38.165Z,100.00
2022-11-21T03:22:06.281Z,100.00
2022-11-21T03:24:34.424Z,100.00
2022-11-21T03:27:02.526Z,100.00
2022-11-21T03:29:30.622Z,100.00
2022-11-21T03:32:00.128Z,100.00
2022-11-21T03:34:28.181Z,100.00
2022-11-21T03:36:56.169Z,100.00
2022-11-21T03:39:23.806Z,100.00
2022-11-21T03:41:51.700Z,100.00
2022-11-21T03:44:19.565Z,100.00
2022-11-21T03:46:48.441Z,100.00
2022-11-21T03:49:17.996Z,100.00
2022-11-21T03:51:46.541Z,100.00
2022-11-21T03:54:14.998Z,100.00
2022-11-21T03:56:43.325Z,100.00
2022-11-21T03:59:11.365Z,100.00
2022-11-21T04:01:39.190Z,100.00
2022-11-21T04:04:07.833Z,100.00
2022-11-21T04:06:36.948Z,100.00
2022-11-21T04:09:05.596Z,100.00
2022-11-21T04:11:33.304Z,100.00
2022-11-21T04:14:01.856Z,100.00
2022-11-21T04:16:29.615Z,100.00
2022-11-21T04:18:57.769Z,100.00
2022-11-21T04:21:25.629Z,100.00
2022-11-21T04:23:54.858Z,100.00
2022-11-21T04:26:22.687Z,100.00
2022-11-21T04:28:50.704Z,100.00
2022-11-21T04:31:18.495Z,100.00
2022-11-21T04:33:46.389Z,100.00
2022-11-21T04:36:14.663Z,100.00
2022-11-21T04:38:42.530Z,100.00
2022-11-21T04:41:12.151Z,100.00
2022-11-21T04:43:40.120Z,100.00
2022-11-21T04:46:07.949Z,100.00
2022-11-21T04:48:35.965Z,100.00
2022-11-21T04:51:04.044Z,100.00
2022-11-21T04:53:32.189Z,100.00
2022-11-21T04:56:00.245Z,100.00
2022-11-21T04:58:29.804Z,100.00
2022-11-21T05:00:57.559Z,100.00
2022-11-21T05:03:30.824Z,100.00
2022-11-21T05:05:58.968Z,100.00
2022-11-21T05:08:26.723Z,100.00
2022-11-21T05:11:12.158Z,100.00
2022-11-21T05:13:41.890Z,100.00
2022-11-21T05:16:09.750Z,100.00
2022-11-21T05:18:37.710Z,100.00
2022-11-21T05:21:05.635Z,100.00
2022-11-21T05:23:33.490Z,100.00
2022-11-21T05:26:01.384Z,100.00
2022-11-21T05:28:30.058Z,100.00
2022-11-21T05:30:59.257Z,100.00
2022-11-21T05:33:26.928Z,100.00
2022-11-21T05:35:55.134Z,100.00
2022-11-21T05:38:23.488Z,100.00
2022-11-21T05:40:52.978Z,100.00
2022-11-21T05:43:38.354Z,100.00
2022-11-21T05:46:07.553Z,100.00
2022-11-21T05:48:36.992Z,100.00
2022-11-21T05:51:05.369Z,100.00
2022-11-21T05:53:34.819Z,100.00
2022-11-21T05:56:03.864Z,100.00
2022-11-21T05:58:31.748Z,100.00
2022-11-21T06:01:00.304Z,100.00
2022-11-21T06:03:31.680Z,100.00
2022-11-21T06:06:00.549Z,100.00
2022-11-21T06:08:29.268Z,100.00
2022-11-21T06:10:57.003Z,100.00
2022-11-21T06:13:25.047Z,100.00
2022-11-21T06:15:57.339Z,100.00
2022-11-21T06:18:25.215Z,100.00
2022-11-21T06:20:54.658Z,100.00
2022-11-21T06:23:22.482Z,100.00
2022-11-21T06:25:57.539Z,100.00
2022-11-21T06:28:25.683Z,100.00
2022-11-21T06:30:53.751Z,100.00
2022-11-21T06:33:21.596Z,100.00
2022-11-21T06:35:49.350Z,100.00
2022-11-21T06:38:19.899Z,100.00
2022-11-21T06:40:47.705Z,100.00
2022-11-21T06:43:15.679Z,100.00
2022-11-21T06:45:43.414Z,100.00
2022-11-21T06:48:11.755Z,100.00
2022-11-21T06:50:40.418Z,100.00
2022-11-21T06:53:08.335Z,100.00
2022-11-21T06:55:37.591Z,100.00
2022-11-21T06:58:05.513Z,100.00
2022-11-21T07:00:33.364Z,100.00
2022-11-21T07:03:03.421Z,100.00
2022-11-21T07:05:31.820Z,100.00
2022-11-21T07:08:00.437Z,100.00
2022-11-21T07:10:28.186Z,100.00
2022-11-21T07:13:22.194Z,100.00
2022-11-21T07:15:51.980Z,100.00
2022-11-21T07:18:20.698Z,100.00
2022-11-21T07:20:48.569Z,100.00
2022-11-21T07:23:17.410Z,100.00
2022-11-21T07:25:45.824Z,100.00
2022-11-21T07:28:15.060Z,100.00
2022-11-21T07:30:42.659Z,100.00
2022-11-21T07:33:10.671Z,100.00
2022-11-21T07:35:43.049Z,100.00
2022-11-21T07:38:11.059Z,100.00
2022-11-21T07:40:38.754Z,100.00
2022-11-21T07:43:10.834Z,100.00
2022-11-21T07:45:41.310Z,100.00
2022-11-21T07:48:11.965Z,100.00
2022-11-21T07:50:39.996Z,100.00
2022-11-21T07:53:08.601Z,100.00
2022-11-21T07:55:40.563Z,100.00
2022-11-21T07:58:09.932Z,100.00
2022-11-21T08:00:38.818Z,100.00
2022-11-21T08:03:08.661Z,100.00
2022-11-21T08:05:36.873Z,100.00
2022-11-21T08:08:05.719Z,100.00
2022-11-21T08:10:34.504Z,100.00
2022-11-21T08:13:02.699Z,100.00
2022-11-21T08:15:30.715Z,100.00
2022-11-21T08:17:58.627Z,100.00
2022-11-21T08:20:28.068Z,100.00
2022-11-21T08:22:56.180Z,100.00
2022-11-21T08:25:23.864Z,100.00
2022-11-21T08:27:51.555Z,100.00
2022-11-21T08:30:20.596Z,100.00
2022-11-21T08:32:48.468Z,100.00
2022-11-21T08:35:16.409Z,100.00
2022-11-21T08:37:46.158Z,100.00
2022-11-21T08:40:13.777Z,100.00
2022-11-21T08:42:41.631Z,100.00
2022-11-21T08:45:09.794Z,100.00
2022-11-21T08:47:37.866Z,100.00
2022-11-21T08:50:08.793Z,100.00
2022-11-21T08:52:37.058Z,100.00
2022-11-21T08:55:07.589Z,100.00
2022-11-21T08:57:38.454Z,100.00
2022-11-21T09:00:06.778Z,100.00
2022-11-21T09:02:34.900Z,100.00
2022-11-21T09:05:02.669Z,100.00
2022-11-21T09:07:30.310Z,100.00
2022-11-21T09:09:59.416Z,100.00
2022-11-21T09:12:28.634Z,100.00
2022-11-21T09:15:13.897Z,100.00
2022-11-21T09:17:59.325Z,100.00
2022-11-21T09:20:27.120Z,100.00
2022-11-21T09:22:55.799Z,100.00
2022-11-21T09:25:23.291Z,100.00
2022-11-21T09:27:53.450Z,90.92
2022-11-21T09:30:22.153Z,83.94
2022-11-21T09:32:50.789Z,84.55
2022-11-21T09:35:20.336Z,81.62
2022-11-21T09:37:48.061Z,87.12
2022-11-21T09:40:16.849Z,84.78
2022-11-21T09:42:54.891Z,87.40
2022-11-21T09:45:27.226Z,82.70
2022-11-21T09:47:56.553Z,77.45
2022-11-21T09:50:28.380Z,79.29
2022-11-21T09:52:59.824Z,86.36
2022-11-21T09:55:30.718Z,92.86
2022-11-21T09:57:59.332Z,99.23
2022-11-21T10:00:28.448Z,100.00
2022-11-21T10:02:57.227Z,100.00
2022-11-21T10:05:31.591Z,98.78
2022-11-21T10:08:02.740Z,95.19
2022-11-21T10:10:36.102Z,91.31
2022-11-21T10:13:12.965Z,81.78
2022-11-21T10:15:48.769Z,73.86
2022-11-21T10:18:29.421Z,73.42
2022-11-21T10:21:04.985Z,76.06
2022-11-21T10:23:42.599Z,78.01
2022-11-21T10:26:17.972Z,80.44
2022-11-21T10:28:51.703Z,75.92
2022-11-21T10:31:21.271Z,64.99
2022-11-21T10:33:50.834Z,57.03
2022-11-21T10:36:25.792Z,53.17
2022-11-21T10:38:55.817Z,56.78
2022-11-21T10:41:27.814Z,66.33
2022-11-21T10:44:16.023Z,72.22
2022-11-21T10:46:56.288Z,81.50
2022-11-21T10:49:25.821Z,73.71
2022-11-21T10:51:59.738Z,63.54
2022-11-21T10:54:36.755Z,54.62
2022-11-21T10:57:08.545Z,47.87
2022-11-21T10:59:36.943Z,44.91
2022-11-21T11:02:23.919Z,45.96
2022-11-21T11:05:13.122Z,53.44
2022-11-21T11:07:40.929Z,46.79
2022-11-21T11:10:16.315Z,50.74
2022-11-21T11:13:05.002Z,50.05
2022-11-21T11:15:39.320Z,59.04
2022-11-21T11:18:15.634Z,58.19
2022-11-21T11:20:45.125Z,65.28
2022-11-21T11:23:24.662Z,68.60
2022-11-21T11:25:53.614Z,60.21
2022-11-21T11:28:21.715Z,55.73
2022-11-21T11:30:50.362Z,61.04
2022-11-21T11:33:51.643Z,68.86
2022-11-21T11:36:26.259Z,80.53
2022-11-21T11:38:54.882Z,88.20
2022-11-21T11:41:59.409Z,83.18
2022-11-21T11:44:51.873Z,69.20
2022-11-21T11:47:32.561Z,75.08
2022-11-21T11:50:13.104Z,78.22
2022-11-21T11:52:50.733Z,79.58
2022-11-21T11:55:21.828Z,82.43
2022-11-21T11:57:51.472Z,80.54
2022-11-21T12:00:26.281Z,81.10
2022-11-21T12:02:58.325Z,82.75
2022-11-21T12:05:29.377Z,79.24
2022-11-21T12:08:40.071Z,77.85
2022-11-21T12:11:13.367Z,76.99
2022-11-21T12:13:43.182Z,77.81
2022-11-21T12:16:13.868Z,78.33
2022-11-21T12:18:47.785Z,69.06
2022-11-21T12:21:18.666Z,54.75
2022-11-21T12:23:47.549Z,45.03
2022-11-21T12:26:22.007Z,37.44
2022-11-21T12:28:58.003Z,35.98
2022-11-21T12:31:28.345Z,38.86
2022-11-21T12:33:59.641Z,44.34
2022-11-21T12:36:33.397Z,44.21
2022-11-21T12:39:17.665Z,45.93
2022-11-21T12:42:12.713Z,44.11
2022-11-21T12:44:49.834Z,38.71
2022-11-21T12:47:26.199Z,43.77
2022-11-21T12:50:13.104Z,43.71
2022-11-21T12:53:00.349Z,37.84
2022-11-21T12:55:36.031Z,36.37
2022-11-21T12:58:07.198Z,38.55
2022-11-21T13:00:41.425Z,48.24
2022-11-21T13:03:33.648Z,50.93
2022-11-21T13:06:02.780Z,48.49
2022-11-21T13:08:33.089Z,45.60
2022-11-21T13:11:19.328Z,43.96
2022-11-21T13:13:49.377Z,47.81
2022-11-21T13:16:37.009Z,44.68
2022-11-21T13:19:18.555Z,48.64
2022-11-21T13:21:48.680Z,56.96
2022-11-21T13:24:31.301Z,67.71
2022-11-21T13:27:00.442Z,67.19
2022-11-21T13:29:28.246Z,71.36
2022-11-21T13:31:56.256Z,73.38
2022-11-21T13:34:35.966Z,74.45
2022-11-21T13:37:04.830Z,73.02
2022-11-21T13:39:34.155Z,69.28
2022-11-21T13:42:24.653Z,70.51
2022-11-21T13:44:53.536Z,72.90
2022-11-21T13:47:55.817Z,73.25
2022-11-21T13:50:38.608Z,74.71
2022-11-21T13:53:16.374Z,73.25
2022-11-21T13:55:56.204Z,74.88
2022-11-21T13:58:30.497Z,71.79
2022-11-21T14:01:10.649Z,73.81
2022-11-21T14:03:59.808Z,75.13
2022-11-21T14:06:36.416Z,76.51
2022-11-21T14:09:15.707Z,74.90
2022-11-21T14:11:48.521Z,65.50
2022-11-21T14:14:26.130Z,58.27
2022-11-21T14:17:00.045Z,50.81
2022-11-21T14:19:28.650Z,44.63
2022-11-21T14:21:57.757Z,42.33
2022-11-21T14:24:25.553Z,37.04
2022-11-21T14:26:54.237Z,37.82
2022-11-21T14:29:27.814Z,40.58
2022-11-21T14:31:56.050Z,45.46
2022-11-21T14:34:27.594Z,52.21
2022-11-21T14:36:56.589Z,58.12
2022-11-21T14:39:44.750Z,64.92
2022-11-21T14:42:13.984Z,72.40
2022-11-21T14:44:43.267Z,77.11
2022-11-21T14:47:18.484Z,80.65
2022-11-21T14:49:51.809Z,83.29
2022-11-21T14:52:27.592Z,85.80
2022-11-21T14:57:46.757Z,92.63
2022-11-21T15:00:51.307Z,92.36
2022-11-21T15:03:18.078Z,93.90
2022-11-21T15:06:05.193Z,94.59
2022-11-21T15:11:24.955Z,97.79
2022-11-21T15:16:47.236Z,100.00
2022-11-21T15:19:20.188Z,100.00
2022-11-21T15:21:48.355Z,100.00
2022-11-21T15:24:20.609Z,100.00
2022-11-21T15:26:48.302Z,100.00
2022-11-21T15:29:20.560Z,100.00
2022-11-21T15:32:06.355Z,100.00
2022-11-21T15:34:36.073Z,100.00
2022-11-21T15:37:24.100Z,100.00
2022-11-21T15:39:52.488Z,100.00
2022-11-21T15:42:30.157Z,100.00
2022-11-21T15:44:58.763Z,100.00
2022-11-21T15:47:28.634Z,100.00
2022-11-21T15:49:56.417Z,100.00
2022-11-21T15:52:24.469Z,100.00
2022-11-21T15:54:52.193Z,100.00
2022-11-21T15:57:14.065Z,99.74
2022-11-21T15:57:21.850Z,100.00
2022-11-21T15:59:50.107Z,100.00
2022-11-21T16:02:18.231Z,100.00
2022-11-21T16:04:47.270Z,100.00
2022-11-21T16:07:15.012Z,100.00
2022-11-21T16:09:44.968Z,100.00
2022-11-21T16:12:12.693Z,100.00
2022-11-21T16:14:40.588Z,100.00
2022-11-21T16:17:08.255Z,100.00
2022-11-21T16:19:36.076Z,100.00
2022-11-21T16:22:05.370Z,100.00
2022-11-21T16:24:33.110Z,100.00
2022-11-21T16:27:02.324Z,100.00
2022-11-21T16:29:30.698Z,100.00
2022-11-21T16:31:59.697Z,100.00
2022-11-21T16:34:27.632Z,100.00
2022-11-21T16:36:55.853Z,100.00
2022-11-21T16:39:24.918Z,100.00
2022-11-21T16:41:52.454Z,100.00
2022-11-21T16:44:21.200Z,100.00
2022-11-21T16:46:51.638Z,100.00
2022-11-21T16:49:20.544Z,100.00
2022-11-21T16:51:48.204Z,100.00
2022-11-21T16:54:15.980Z,100.00
2022-11-21T16:56:45.103Z,100.00
2022-11-21T16:59:13.068Z,100.00
2022-11-21T17:01:41.310Z,100.00
2022-11-21T17:04:15.617Z,100.00
2022-11-21T17:06:45.582Z,100.00
2022-11-21T17:09:13.708Z,100.00
2022-11-21T17:11:41.433Z,100.00
2022-11-21T17:14:12.161Z,100.00
2022-11-21T17:16:41.798Z,100.00
2022-11-21T17:19:11.868Z,100.00
2022-11-21T17:21:39.520Z,100.00
2022-11-21T17:24:07.781Z,100.00
2022-11-21T17:26:36.776Z,100.00
2022-11-21T17:29:05.194Z,100.00
2022-11-21T17:31:34.410Z,100.00
2022-11-21T17:34:02.274Z,100.00
2022-11-21T17:36:31.260Z,100.00
2022-11-21T17:38:59.478Z,100.00
2022-11-21T17:41:28.450Z,100.00
2022-11-21T17:43:57.323Z,100.00
2022-11-21T17:46:26.498Z,100.00
2022-11-21T17:48:59.164Z,100.00
2022-11-21T17:51:28.947Z,100.00
2022-11-21T17:53:57.713Z,100.00
2022-11-21T17:56:27.274Z,100.00
2022-11-21T17:58:55.660Z,100.00
2022-11-21T18:01:23.855Z,100.00
2022-11-21T18:03:58.355Z,100.00
2022-11-21T18:06:27.896Z,100.00
2022-11-21T18:08:57.820Z,100.00
2022-11-21T18:11:31.926Z,100.00
2022-11-21T18:14:03.769Z,100.00
2022-11-21T18:16:33.163Z,100.00
2022-11-21T18:19:02.972Z,100.00
2022-11-21T18:21:32.519Z,100.00
2022-11-21T18:24:01.273Z,100.00
2022-11-21T18:26:30.593Z,100.00
2022-11-21T18:29:34.517Z,100.00
2022-11-21T18:31:49.917Z,100.00
2022-11-21T18:34:19.530Z,100.00
2022-11-21T18:36:48.914Z,100.00
2022-11-21T18:39:17.027Z,100.00
2022-11-21T18:41:45.083Z,100.00
2022-11-21T18:44:19.993Z,100.00
2022-11-21T18:46:49.827Z,100.00
2022-11-21T18:49:19.203Z,100.00
2022-11-21T18:51:48.421Z,100.00
2022-11-21T18:54:19.160Z,100.00
2022-11-21T18:56:48.825Z,100.00
2022-11-21T18:59:17.245Z,100.00
2022-11-21T19:01:45.803Z,100.00
2022-11-21T19:04:17.850Z,100.00
2022-11-21T19:06:48.068Z,100.00
2022-11-21T19:09:16.449Z,100.00
2022-11-21T19:11:44.768Z,100.00
2022-11-21T19:14:13.039Z,100.00
2022-11-21T19:16:41.632Z,100.00
2022-11-21T19:22:01.149Z,100.00
2022-11-21T19:24:29.750Z,100.00
2022-11-21T19:26:57.857Z,100.00
2022-11-21T19:29:26.356Z,100.00
2022-11-21T19:31:55.743Z,100.00
2022-11-21T19:34:24.225Z,100.00
2022-11-21T19:36:52.035Z,100.00
2022-11-21T19:39:22.994Z,100.00
2022-11-21T19:41:51.007Z,100.00
2022-11-21T19:44:20.016Z,100.00
2022-11-21T19:46:49.494Z,100.00
2022-11-21T19:49:19.565Z,100.00
2022-11-21T19:51:47.294Z,100.00
2022-11-21T19:54:16.847Z,100.00
2022-11-21T19:56:46.138Z,100.00
2022-11-21T19:59:14.555Z,100.00
2022-11-21T20:01:42.909Z,100.00
2022-11-21T20:04:15.753Z,100.00
2022-11-21T20:06:46.739Z,100.00
2022-11-21T20:09:16.742Z,100.00
2022-11-21T20:11:46.639Z,100.00
2022-11-21T20:14:21.396Z,100.00
2022-11-21T20:16:50.029Z,100.00
2022-11-21T20:19:19.573Z,100.00
2022-11-21T20:21:47.811Z,100.00
2022-11-21T20:24:15.897Z,100.00
2022-11-21T20:26:44.135Z,100.00
2022-11-21T20:29:14.676Z,100.00
2022-11-21T20:31:42.894Z,100.00
2022-11-21T20:34:12.689Z,100.00
2022-11-21T20:36:40.710Z,100.00
2022-11-21T20:39:09.290Z,100.00
2022-11-21T20:41:37.948Z,100.00
2022-11-21T20:47:02.450Z,100.00
2022-11-21T20:49:30.566Z,100.00
2022-11-21T20:54:54.759Z,100.00
2022-11-21T20:57:22.888Z,100.00
2022-11-21T20:59:50.621Z,100.00
2022-11-21T21:02:20.282Z,100.00
2022-11-21T21:04:48.231Z,100.00
2022-11-21T21:07:16.518Z,100.00
2022-11-21T21:09:44.296Z,100.00
2022-11-21T21:12:12.080Z,100.00
2022-11-21T21:14:39.934Z,100.00
2022-11-21T21:17:07.573Z,100.00
2022-11-21T21:19:36.710Z,100.00
2022-11-21T21:22:08.936Z,100.00
2022-11-21T21:24:36.669Z,100.00
2022-11-21T21:27:04.404Z,100.00
2022-11-21T21:29:32.717Z,100.00
2022-11-21T21:32:00.833Z,100.00
2022-11-21T21:34:28.995Z,100.00
2022-11-21T21:36:58.783Z,100.00
2022-11-21T21:39:27.300Z,100.00
2022-11-21T21:41:55.267Z,100.00
2022-11-21T21:44:27.025Z,100.00
2022-11-21T21:46:58.712Z,100.00
2022-11-21T21:49:26.581Z,100.00
2022-11-21T21:51:56.013Z,100.00
2022-11-21T21:54:25.136Z,100.00
2022-11-21T21:56:53.442Z,100.00
2022-11-21T21:59:21.677Z,100.00
2022-11-21T22:01:50.165Z,100.00
2022-11-21T22:04:18.408Z,100.00
2022-11-21T22:06:46.079Z,100.00
2022-11-21T22:09:13.669Z,100.00
2022-11-21T22:11:43.097Z,100.00
2022-11-21T22:14:12.348Z,100.00
2022-11-21T22:16:40.616Z,100.00
2022-11-21T22:19:08.642Z,100.00
2022-11-21T22:21:37.483Z,100.00
2022-11-21T22:26:59.643Z,100.00
2022-11-21T22:29:27.675Z,100.00
2022-11-21T22:31:56.257Z,100.00
2022-11-21T22:34:26.777Z,100.00
2022-11-21T22:36:57.635Z,100.00
2022-11-21T22:39:26.772Z,100.00
2022-11-21T22:41:59.866Z,100.00
2022-11-21T22:44:28.535Z,100.00
2022-11-21T22:46:56.417Z,100.00
2022-11-21T22:49:24.129Z,100.00
2022-11-21T22:51:51.812Z,100.00
2022-11-21T22:54:20.564Z,100.00
2022-11-21T22:56:48.250Z,100.00
2022-11-21T22:59:18.254Z,100.00
2022-11-21T23:01:45.893Z,100.00
2022-11-21T23:04:17.649Z,100.00
2022-11-21T23:06:46.019Z,100.00
2022-11-21T23:09:14.016Z,100.00
2022-11-21T23:11:41.740Z,100.00
2022-11-21T23:14:09.438Z,100.00
2022-11-21T23:16:38.528Z,100.00
2022-11-21T23:19:06.402Z,100.00
2022-11-21T23:21:34.193Z,100.00
2022-11-21T23:24:02.404Z,100.00
2022-11-21T23:26:30.363Z,100.00
2022-11-21T23:28:59.582Z,100.00
2022-11-21T23:31:29.035Z,100.00
2022-11-21T23:33:58.124Z,100.00
2022-11-21T23:36:25.903Z,100.00
2022-11-21T23:38:53.611Z,100.00
2022-11-21T23:41:21.499Z,100.00
2022-11-21T23:43:49.185Z,100.00
2022-11-21T23:46:16.979Z,100.00
2022-11-21T23:48:44.689Z,100.00
2022-11-21T23:51:14.119Z,100.00
2022-11-21T23:53:42.050Z,100.00
2022-11-21T23:56:09.866Z,100.00
2022-11-21T23:58:37.990Z,100.00
